Time;durP1;ratioP1;P1;durP2;ratioP2;P2;SDS_P1;SDS_P2;PMS_P1;PMS_P2;Temp;Humidity;BMP_temperature;BMP_pressure;BME280_temperature;BME280_humidity;BME280_pressure;Samples;Min_cycle;Max_cycle;Signal;HPM_P1;HPM_P2
2023/06/09 00:02:04;;;;;;;9.10;6.65;;;20.20;58.90;;;;;;4982092;28;114365;-76
2023/06/09 00:04:35;;;;;;;9.98;6.88;;;20.20;58.90;;;;;;4966024;28;115909;-78
2023/06/09 00:07:03;;;;;;;8.88;7.35;;;20.20;59.30;;;;;;4967018;28;114676;-77
2023/06/09 00:09:30;;;;;;;7.20;5.85;;;20.20;59.40;;;;;;4984561;28;114467;-77
2023/06/09 00:11:58;;;;;;;7.03;6.22;;;20.20;58.70;;;;;;4967612;28;114312;-77
2023/06/09 00:14:25;;;;;;;7.57;6.10;;;20.20;58.90;;;;;;4986939;28;114587;-77
2023/06/09 00:16:52;;;;;;;9.32;7.43;;;20.20;58.90;;;;;;4986604;28;114778;-77
2023/06/09 00:19:22;;;;;;;8.60;6.38;;;20.20;59.20;;;;;;4984570;28;114382;-77
2023/06/09 00:21:49;;;;;;;9.32;6.40;;;20.20;58.50;;;;;;4984269;28;114429;-77
2023/06/09 00:24:20;;;;;;;8.80;6.82;;;20.20;58.50;;;;;;4983445;28;114984;-77
2023/06/09 00:26:51;;;;;;;7.50;6.60;;;20.20;58.90;;;;;;4982645;28;115978;-76
2023/06/09 00:29:19;;;;;;;7.93;6.50;;;20.20;59.10;;;;;;4984356;28;114406;-77
2023/06/09 00:31:46;;;;;;;9.23;7.00;;;20.20;58.70;;;;;;4982877;28;114460;-77
2023/06/09 00:34:13;;;;;;;8.95;6.90;;;20.20;59.00;;;;;;4966206;28;114890;-76
2023/06/09 00:36:53;;;;;;;8.50;6.78;;;20.20;58.80;;;;;;4999413;28;114671;-77
2023/06/09 00:39:20;;;;;;;8.82;6.93;;;20.10;58.80;;;;;;4966407;28;114707;-77
2023/06/09 00:41:47;;;;;;;8.60;7.65;;;20.10;58.80;;;;;;4985676;28;114359;-77
2023/06/09 00:44:15;;;;;;;10.45;8.40;;;20.10;59.00;;;;;;4968234;28;114849;-77
2023/06/09 00:46:42;;;;;;;7.85;6.47;;;20.00;59.30;;;;;;4968087;28;115832;-77
2023/06/09 00:49:09;;;;;;;8.68;7.78;;;19.90;59.10;;;;;;4967654;28;114638;-78
2023/06/09 00:51:37;;;;;;;8.10;6.57;;;19.80;59.80;;;;;;4956689;28;114464;-78
2023/06/09 00:54:05;;;;;;;9.23;7.13;;;19.90;59.50;;;;;;4963482;28;114893;-78
2023/06/09 00:56:34;;;;;;;8.50;6.50;;;19.90;59.40;;;;;;4965264;28;119283;-77
2023/06/09 00:59:01;;;;;;;9.55;7.20;;;20.00;59.10;;;;;;4967884;28;114224;-78
2023/06/09 01:01:29;;;;;;;10.50;8.23;;;20.10;59.20;;;;;;4968658;28;114786;-77
2023/06/09 01:04:00;;;;;;;8.27;6.57;;;20.10;59.50;;;;;;4968228;28;114825;-77
2023/06/09 01:07:03;;;;;;;10.85;7.90;;;20.20;58.80;;;;;;4980719;28;114899;-78
2023/06/09 01:09:40;;;;;;;7.93;6.65;;;20.20;59.30;;;;;;4962064;28;114692;-78
2023/06/09 01:12:10;;;;;;;9.07;7.50;;;20.20;59.00;;;;;;5006272;28;114248;-77
2023/06/09 01:14:45;;;;;;;10.30;8.10;;;20.20;59.20;;;;;;5004977;28;115104;-77
2023/06/09 01:17:14;;;;;;;9.95;8.00;;;20.20;59.30;;;;;;4988783;28;117833;-77
2023/06/09 01:19:46;;;;;;;10.15;7.05;;;20.20;59.30;;;;;;4989920;28;114485;-78
2023/06/09 01:22:16;;;;;;;11.27;8.48;;;20.20;59.10;;;;;;4978061;28;114659;-77
2023/06/09 01:25:26;;;;;;;11.90;7.90;;;20.20;59.40;;;;;;5003552;28;114873;-77
2023/06/09 01:27:57;;;;;;;11.43;8.45;;;20.10;58.80;;;;;;4982879;28;116660;-78
2023/06/09 01:30:29;;;;;;;8.93;7.10;;;20.00;59.60;;;;;;5006593;28;114437;-78
2023/06/09 01:32:57;;;;;;;9.45;7.80;;;20.00;59.60;;;;;;4989993;28;114194;-77
2023/06/09 01:35:24;;;;;;;10.38;7.78;;;19.90;59.70;;;;;;4969966;28;116041;-77
2023/06/09 01:37:55;;;;;;;9.50;7.47;;;20.00;59.80;;;;;;4984133;28;114565;-77
2023/06/09 01:40:23;;;;;;;7.18;6.05;;;19.90;59.70;;;;;;4985733;28;114367;-77
2023/06/09 01:42:50;;;;;;;8.82;7.53;;;20.00;59.30;;;;;;4986171;28;114360;-78
2023/06/09 01:45:17;;;;;;;7.68;6.85;;;20.00;59.60;;;;;;4984962;28;114980;-77
2023/06/09 01:47:46;;;;;;;9.23;7.55;;;20.00;59.30;;;;;;4995661;28;116052;-78
2023/06/09 01:50:35;;;;;;;9.27;7.40;;;20.00;59.60;;;;;;4988609;28;114584;-77
2023/06/09 01:53:09;;;;;;;9.98;7.63;;;20.10;59.40;;;;;;5006032;28;114543;-77
2023/06/09 01:55:44;;;;;;;8.10;7.10;;;20.10;59.60;;;;;;5005508;28;114867;-78
2023/06/09 01:58:19;;;;;;;7.75;6.70;;;20.10;59.50;;;;;;4972506;28;114646;-77
2023/06/09 02:00:47;;;;;;;8.82;7.90;;;20.10;59.40;;;;;;4961713;28;114276;-77
2023/06/09 02:03:20;;;;;;;7.72;6.75;;;20.10;59.30;;;;;;4985630;28;115291;-77
2023/06/09 02:05:47;;;;;;;13.98;8.13;;;20.10;59.10;;;;;;4983930;28;115303;-77
2023/06/09 02:08:15;;;;;;;7.90;7.07;;;20.20;59.60;;;;;;4984537;28;114861;-77
2023/06/09 02:10:42;;;;;;;8.05;7.10;;;20.10;59.30;;;;;;4968985;28;114651;-77
2023/06/09 02:13:19;;;;;;;8.15;6.30;;;20.10;59.20;;;;;;4990266;28;114084;-77
2023/06/09 02:15:47;;;;;;;10.57;7.47;;;20.10;59.20;;;;;;4988088;28;114740;-77
2023/06/09 02:18:17;;;;;;;9.07;7.40;;;20.10;59.70;;;;;;4984616;28;114710;-76
2023/06/09 02:20:44;;;;;;;7.82;6.57;;;20.10;59.50;;;;;;4985364;28;114637;-76
2023/06/09 02:23:18;;;;;;;9.88;7.05;;;20.10;59.50;;;;;;4985863;28;114364;-77
2023/06/09 02:25:47;;;;;;;7.47;6.38;;;20.10;59.50;;;;;;5004878;28;115433;-78
2023/06/09 02:28:15;;;;;;;8.50;7.03;;;20.10;59.00;;;;;;5005559;28;114630;-78
2023/06/09 02:30:45;;;;;;;12.40;8.50;;;20.10;59.50;;;;;;4972782;28;114374;-77
2023/06/09 02:33:18;;;;;;;7.32;6.38;;;20.10;59.90;;;;;;4989371;28;114460;-77
2023/06/09 02:35:45;;;;;;;7.90;6.85;;;20.10;59.20;;;;;;5021548;28;114759;-77
2023/06/09 02:38:13;;;;;;;12.23;7.00;;;20.10;59.00;;;;;;5004298;28;114686;-78
2023/06/09 02:40:45;;;;;;;9.07;6.75;;;20.10;59.20;;;;;;5005373;28;114272;-78
2023/06/09 02:43:15;;;;;;;8.32;7.30;;;20.10;59.20;;;;;;4988981;28;114865;-78
2023/06/09 02:45:43;;;;;;;7.68;6.55;;;20.20;59.20;;;;;;5004304;28;114851;-78
2023/06/09 02:48:13;;;;;;;7.88;6.72;;;20.10;59.10;;;;;;4987448;28;117449;-78
2023/06/09 02:50:40;;;;;;;10.18;8.10;;;20.20;59.00;;;;;;4988184;28;114437;-78
2023/06/09 02:53:09;;;;;;;13.07;6.85;;;20.10;59.60;;;;;;5006550;28;115464;-78
2023/06/09 02:55:38;;;;;;;7.13;6.40;;;20.10;59.30;;;;;;5003454;28;115325;-79
2023/06/09 02:58:05;;;;;;;10.43;7.15;;;20.10;59.20;;;;;;5020819;28;114687;-78
2023/06/09 03:00:33;;;;;;;8.40;6.97;;;20.20;59.70;;;;;;5004643;28;114497;-79
2023/06/09 03:03:06;;;;;;;8.37;7.10;;;20.10;59.10;;;;;;5004491;28;114577;-79
2023/06/09 03:05:40;;;;;;;10.52;7.43;;;20.10;59.60;;;;;;5020223;28;115140;-77
2023/06/09 03:08:09;;;;;;;7.88;6.72;;;20.10;59.50;;;;;;5020695;28;115304;-78
2023/06/09 03:10:37;;;;;;;7.80;6.80;;;20.00;59.30;;;;;;5004358;28;114307;-78
2023/06/09 03:13:05;;;;;;;8.02;6.78;;;20.10;59.50;;;;;;5004777;28;114312;-79
2023/06/09 03:15:40;;;;;;;7.65;6.40;;;20.10;59.30;;;;;;5018829;28;114918;-79
2023/06/09 03:18:09;;;;;;;8.85;7.95;;;20.10;59.20;;;;;;4987568;28;114646;-78
2023/06/09 03:20:38;;;;;;;8.48;7.43;;;20.20;59.80;;;;;;5020136;28;114549;-75
2023/06/09 03:23:09;;;;;;;8.20;6.65;;;20.10;59.50;;;;;;5020482;28;114306;-78
2023/06/09 03:25:39;;;;;;;8.75;7.45;;;20.10;59.10;;;;;;5003076;28;117479;-77
2023/06/09 03:28:07;;;;;;;8.32;6.82;;;20.10;59.40;;;;;;5004379;28;114560;-75
2023/06/09 03:30:37;;;;;;;9.20;7.10;;;20.10;59.10;;;;;;5003685;28;114241;-76
2023/06/09 03:33:05;;;;;;;7.72;6.60;;;20.10;59.30;;;;;;4987328;28;114350;-77
2023/06/09 03:35:33;;;;;;;10.48;6.55;;;20.10;59.30;;;;;;4989989;28;118164;-78
2023/06/09 03:38:01;;;;;;;8.30;7.07;;;20.10;59.30;;;;;;4983535;28;114723;-78
2023/06/09 03:40:28;;;;;;;7.43;6.55;;;20.20;59.30;;;;;;4999917;28;114255;-78
2023/06/09 03:42:56;;;;;;;9.70;7.07;;;20.10;59.10;;;;;;4983831;28;114376;-75
2023/06/09 03:45:25;;;;;;;9.48;7.13;;;20.20;59.20;;;;;;4982601;28;118417;-77
2023/06/09 03:47:52;;;;;;;8.90;6.78;;;20.20;59.40;;;;;;4999423;28;115528;-75
2023/06/09 03:50:20;;;;;;;7.45;6.45;;;20.20;59.20;;;;;;4983787;28;114697;-77
2023/06/09 03:52:48;;;;;;;8.07;7.28;;;20.20;59.10;;;;;;5000982;28;114494;-75
2023/06/09 03:55:20;;;;;;;8.32;7.38;;;20.20;59.20;;;;;;4999713;28;114842;-76
2023/06/09 03:57:48;;;;;;;9.55;6.80;;;20.20;59.40;;;;;;4999714;28;114630;-77
2023/06/09 04:00:17;;;;;;;7.93;7.13;;;20.20;59.10;;;;;;4984215;28;114338;-76
2023/06/09 04:02:44;;;;;;;8.48;6.93;;;20.10;59.30;;;;;;4988013;28;114584;-76
2023/06/09 04:05:15;;;;;;;10.93;7.50;;;20.10;59.40;;;;;;5019441;28;119264;-76
2023/06/09 04:07:44;;;;;;;8.63;6.75;;;20.10;59.50;;;;;;5002588;28;115197;-76
2023/06/09 04:10:11;;;;;;;10.15;8.10;;;20.10;59.30;;;;;;4986324;28;114418;-76
2023/06/09 04:12:41;;;;;;;10.05;8.70;;;20.20;59.80;;;;;;5006598;28;114150;-76
2023/06/09 04:15:09;;;;;;;8.63;6.80;;;20.20;59.50;;;;;;4987802;28;116062;-76
2023/06/09 04:17:38;;;;;;;8.98;7.90;;;20.20;59.20;;;;;;4958923;28;114712;-75
2023/06/09 04:20:07;;;;;;;9.10;8.15;;;20.30;59.30;;;;;;4951281;28;114672;-76
2023/06/09 04:22:45;;;;;;;10.23;8.65;;;20.30;59.50;;;;;;4951441;28;114625;-75
2023/06/09 04:25:13;;;;;;;8.43;7.38;;;20.30;59.70;;;;;;4966510;28;115274;-75
2023/06/09 04:27:41;;;;;;;10.40;7.95;;;20.20;59.10;;;;;;4999585;28;114938;-76
2023/06/09 04:30:10;;;;;;;8.20;7.35;;;20.30;59.60;;;;;;4983967;28;114405;-76
2023/06/09 04:32:37;;;;;;;10.27;8.32;;;20.30;59.20;;;;;;4983799;28;114490;-76
2023/06/09 04:35:05;;;;;;;10.27;7.60;;;20.40;59.50;;;;;;4981656;28;115142;-77
2023/06/09 04:37:34;;;;;;;9.23;8.32;;;20.30;59.40;;;;;;4964860;28;117535;-76
2023/06/09 04:40:03;;;;;;;9.05;7.75;;;20.30;59.60;;;;;;5000163;28;114460;-77
2023/06/09 04:42:31;;;;;;;8.38;7.03;;;20.30;59.40;;;;;;5000052;28;114598;-77
2023/06/09 04:45:00;;;;;;;10.00;8.60;;;20.30;59.70;;;;;;4966194;28;115498;-77
2023/06/09 04:47:29;;;;;;;13.50;8.77;;;20.30;60.10;;;;;;5017803;28;114882;-76
2023/06/09 04:49:57;;;;;;;16.15;9.15;;;20.30;60.10;;;;;;5019517;28;114691;-76
2023/06/09 04:52:27;;;;;;;14.27;9.93;;;20.20;60.20;;;;;;4987766;28;114396;-76
2023/06/09 04:54:57;;;;;;;15.68;9.38;;;20.20;60.60;;;;;;5001971;28;115930;-76
2023/06/09 04:57:28;;;;;;;11.07;8.35;;;20.30;59.90;;;;;;5001905;28;114813;-76
2023/06/09 05:00:04;;;;;;;16.60;10.75;;;20.30;59.30;;;;;;5002529;28;114241;-76
2023/06/09 05:02:33;;;;;;;11.43;8.90;;;20.30;59.80;;;;;;5002878;28;114246;-77
2023/06/09 05:05:02;;;;;;;8.68;7.78;;;20.30;59.70;;;;;;4985869;28;114885;-76
2023/06/09 05:07:29;;;;;;;9.70;8.32;;;20.20;59.40;;;;;;5003225;28;114696;-77
2023/06/09 05:09:57;;;;;;;9.10;8.00;;;20.20;59.80;;;;;;5002756;28;114507;-77
2023/06/09 05:12:28;;;;;;;9.50;7.88;;;20.20;59.60;;;;;;5002719;28;114266;-77
2023/06/09 05:14:56;;;;;;;11.18;8.73;;;20.20;60.00;;;;;;5018595;28;115290;-76
2023/06/09 05:17:26;;;;;;;9.35;8.35;;;20.30;60.40;;;;;;5002175;28;114642;-77
2023/06/09 05:19:53;;;;;;;12.93;9.82;;;20.30;59.70;;;;;;5002159;28;114623;-79
2023/06/09 05:22:21;;;;;;;12.30;10.05;;;20.30;60.30;;;;;;5002170;28;114435;-77
2023/06/09 05:24:48;;;;;;;13.30;11.23;;;20.20;60.50;;;;;;4980795;28;114925;-77
2023/06/09 05:27:15;;;;;;;12.27;10.30;;;20.20;60.70;;;;;;4984799;28;115058;-77
2023/06/09 05:29:43;;;;;;;12.40;11.20;;;20.30;60.70;;;;;;4985953;28;114534;-78
2023/06/09 05:32:11;;;;;;;11.98;10.63;;;20.30;60.60;;;;;;5002805;28;114384;-77
2023/06/09 05:34:38;;;;;;;12.05;8.73;;;20.30;60.50;;;;;;4968529;28;117272;-77
2023/06/09 05:37:06;;;;;;;16.10;14.35;;;20.40;59.60;;;;;;5000618;28;114712;-77
2023/06/09 05:39:33;;;;;;;17.58;14.48;;;20.50;60.60;;;;;;4985538;28;115062;-78
2023/06/09 05:42:00;;;;;;;12.98;10.70;;;20.60;60.70;;;;;;4987625;28;114443;-77
2023/06/09 05:44:29;;;;;;;11.20;10.00;;;20.70;59.70;;;;;;4984326;28;117108;-77
2023/06/09 05:46:56;;;;;;;10.25;8.57;;;20.70;59.40;;;;;;4985841;28;114778;-77
2023/06/09 05:49:33;;;;;;;19.85;11.50;;;20.80;58.70;;;;;;4985983;28;114401;-76
2023/06/09 05:52:02;;;;;;;14.02;12.55;;;21.00;59.30;;;;;;4986902;28;114344;-77
2023/06/09 05:54:30;;;;;;;16.38;14.23;;;21.10;59.40;;;;;;4986026;28;114917;-78
2023/06/09 05:56:57;;;;;;;14.27;12.77;;;21.30;59.50;;;;;;4985899;28;114860;-78
2023/06/09 05:59:25;;;;;;;14.30;12.55;;;21.40;59.20;;;;;;4979855;28;115528;-77
2023/06/09 06:01:54;;;;;;;15.57;12.45;;;21.70;58.90;;;;;;4983435;28;114323;-78
2023/06/09 06:04:21;;;;;;;15.02;13.05;;;21.90;59.10;;;;;;4984288;28;115431;-78
2023/06/09 06:06:49;;;;;;;15.15;13.55;;;22.10;58.50;;;;;;4985036;28;114583;-77
2023/06/09 06:09:17;;;;;;;15.23;12.82;;;22.30;58.40;;;;;;4986838;28;117870;-78
2023/06/09 06:11:46;;;;;;;16.23;13.98;;;22.50;57.70;;;;;;4986125;28;114308;-77
2023/06/09 06:14:13;;;;;;;15.20;13.68;;;22.70;57.10;;;;;;4984137;28;114973;-77
2023/06/09 06:16:40;;;;;;;20.45;17.38;;;22.90;56.50;;;;;;4985251;28;114735;-78
2023/06/09 06:19:08;;;;;;;17.98;15.68;;;23.20;56.00;;;;;;4986345;28;115009;-77
2023/06/09 06:21:37;;;;;;;19.60;16.83;;;23.30;55.50;;;;;;4984989;28;114592;-78
2023/06/09 06:24:05;;;;;;;18.45;16.40;;;23.60;55.30;;;;;;4985299;28;115668;-78
2023/06/09 06:26:32;;;;;;;16.42;13.82;;;23.70;54.30;;;;;;4982236;28;114639;-78
2023/06/09 06:29:00;;;;;;;15.50;13.70;;;23.70;54.00;;;;;;4986248;28;114336;-78
2023/06/09 06:31:29;;;;;;;14.52;13.10;;;23.60;53.90;;;;;;4985275;28;114390;-78
2023/06/09 06:33:57;;;;;;;14.68;13.20;;;23.40;54.20;;;;;;4983813;28;114214;-78
2023/06/09 06:36:28;;;;;;;15.93;13.88;;;23.30;54.20;;;;;;4982799;28;117337;-77
2023/06/09 06:38:56;;;;;;;15.80;14.20;;;23.20;54.50;;;;;;4985383;28;114314;-78
2023/06/09 06:41:26;;;;;;;12.73;11.45;;;23.00;54.50;;;;;;4986124;28;114497;-78
2023/06/09 06:43:53;;;;;;;11.02;9.85;;;22.90;54.20;;;;;;4966117;28;115121;-78
2023/06/09 06:46:23;;;;;;;12.63;11.15;;;22.90;53.80;;;;;;4983619;28;115166;-78
2023/06/09 06:48:51;;;;;;;14.00;12.57;;;22.80;54.40;;;;;;4984317;28;114667;-77
2023/06/09 06:51:19;;;;;;;13.68;12.13;;;22.90;54.80;;;;;;4987228;28;114572;-77
2023/06/09 06:53:46;;;;;;;16.30;14.60;;;22.80;54.90;;;;;;4984205;28;115176;-77
2023/06/09 06:56:14;;;;;;;15.05;13.52;;;22.80;55.40;;;;;;4984360;28;114644;-78
2023/06/09 06:58:41;;;;;;;15.35;13.45;;;22.90;55.70;;;;;;4978308;28;115497;-78
2023/06/09 07:01:10;;;;;;;14.77;13.30;;;22.90;55.60;;;;;;4967384;28;114466;-77
2023/06/09 07:03:40;;;;;;;15.20;13.63;;;22.90;55.70;;;;;;4984084;28;114946;-78
2023/06/09 07:06:09;;;;;;;14.18;12.68;;;22.90;55.70;;;;;;4982721;28;115153;-78
2023/06/09 07:08:38;;;;;;;14.52;12.93;;;22.80;55.50;;;;;;5001217;28;114593;-77
2023/06/09 07:11:05;;;;;;;13.45;12.10;;;22.80;55.60;;;;;;4982003;28;114643;-77
2023/06/09 07:13:33;;;;;;;13.40;12.00;;;22.80;55.70;;;;;;4966355;28;114852;-77
2023/06/09 07:16:01;;;;;;;11.98;10.63;;;22.70;55.10;;;;;;4983943;28;114681;-78
2023/06/09 07:18:29;;;;;;;11.65;10.45;;;22.80;55.10;;;;;;4966430;28;114150;-78
2023/06/09 07:20:59;;;;;;;12.55;11.30;;;22.80;55.20;;;;;;4986160;28;114757;-77
2023/06/09 07:23:30;;;;;;;12.77;11.35;;;22.80;55.20;;;;;;4982368;28;116900;-77
2023/06/09 07:25:58;;;;;;;12.63;11.43;;;22.90;55.00;;;;;;4983412;28;114589;-78
2023/06/09 07:28:26;;;;;;;12.45;11.15;;;22.90;55.00;;;;;;4981299;28;114527;-78
2023/06/09 07:30:53;;;;;;;13.00;11.63;;;22.90;55.40;;;;;;4983988;28;114813;-78
2023/06/09 07:33:21;;;;;;;13.82;12.02;;;23.10;55.40;;;;;;4980539;28;114977;-77
2023/06/09 07:35:49;;;;;;;14.23;12.73;;;23.20;55.30;;;;;;4981361;28;114900;-78
2023/06/09 07:38:17;;;;;;;13.93;11.90;;;23.30;55.20;;;;;;4983391;28;114675;-77
2023/06/09 07:40:44;;;;;;;14.05;12.55;;;23.30;54.50;;;;;;4985240;28;114344;-77
2023/06/09 07:43:12;;;;;;;11.70;10.48;;;23.50;54.60;;;;;;4983302;28;114878;-76
2023/06/09 07:45:39;;;;;;;12.55;11.35;;;23.60;54.70;;;;;;4983491;28;114699;-77
2023/06/09 07:48:09;;;;;;;11.70;10.50;;;23.80;54.30;;;;;;4966428;28;114378;-78
2023/06/09 07:50:42;;;;;;;11.35;9.95;;;23.90;53.00;;;;;;4985308;28;114223;-78
2023/06/09 07:53:27;;;;;;;10.82;9.68;;;24.20;51.50;;;;;;4983711;28;115094;-77
2023/06/09 07:55:55;;;;;;;11.07;9.35;;;24.10;51.70;;;;;;4999640;28;114635;-77
2023/06/09 07:58:26;;;;;;;10.38;9.27;;;24.00;51.40;;;;;;4984075;28;114567;-77
2023/06/09 08:00:57;;;;;;;12.38;10.20;;;24.00;51.20;;;;;;4983661;28;114638;-77
2023/06/09 08:03:25;;;;;;;11.75;10.63;;;23.90;52.10;;;;;;4950426;28;117927;-77
2023/06/09 08:05:53;;;;;;;12.68;11.35;;;23.80;52.60;;;;;;4989141;28;114583;-78
2023/06/09 08:08:21;;;;;;;13.15;11.85;;;23.80;52.80;;;;;;5004990;28;114575;-78
2023/06/09 08:10:48;;;;;;;12.13;10.90;;;23.70;53.20;;;;;;4998119;28;114511;-78
2023/06/09 08:13:17;;;;;;;12.63;10.73;;;23.60;53.10;;;;;;4965925;28;117255;-78
2023/06/09 08:15:45;;;;;;;12.23;10.95;;;23.50;53.30;;;;;;4983667;28;115281;-77
2023/06/09 08:18:12;;;;;;;12.80;10.23;;;23.50;53.30;;;;;;4983000;28;114587;-77
2023/06/09 08:20:42;;;;;;;13.57;10.60;;;23.30;53.30;;;;;;4983013;28;114327;-77
2023/06/09 08:23:11;;;;;;;11.85;10.60;;;23.30;53.60;;;;;;4982373;28;115936;-77
2023/06/09 08:25:38;;;;;;;12.20;10.57;;;23.30;53.80;;;;;;4982741;28;115204;-77
2023/06/09 08:28:08;;;;;;;11.73;10.55;;;23.30;53.70;;;;;;4982573;28;114520;-77
2023/06/09 08:30:35;;;;;;;13.77;10.45;;;23.30;53.00;;;;;;4981142;28;114632;-77
2023/06/09 08:33:06;;;;;;;11.38;10.27;;;23.30;53.50;;;;;;4981152;28;118738;-77
2023/06/09 08:35:36;;;;;;;12.60;11.30;;;23.30;53.80;;;;;;4983754;28;114339;-77
2023/06/09 08:38:04;;;;;;;12.50;11.20;;;23.30;54.10;;;;;;4984107;28;114393;-77
2023/06/09 08:40:31;;;;;;;12.93;11.55;;;23.40;53.20;;;;;;4983093;28;114497;-77
2023/06/09 08:43:00;;;;;;;14.52;11.52;;;23.40;53.80;;;;;;4979283;28;116309;-77
2023/06/09 08:45:30;;;;;;;13.35;11.98;;;23.30;53.70;;;;;;4981297;28;114768;-78
2023/06/09 08:48:00;;;;;;;12.65;11.40;;;23.20;54.20;;;;;;4964858;28;114448;-78
2023/06/09 08:50:30;;;;;;;13.70;12.23;;;23.10;54.40;;;;;;4965519;28;114458;-78
2023/06/09 08:52:57;;;;;;;14.02;12.65;;;23.00;54.70;;;;;;4982157;28;114943;-78
2023/06/09 08:55:27;;;;;;;13.50;11.80;;;23.00;55.20;;;;;;4989835;28;118637;-78
2023/06/09 08:57:55;;;;;;;13.52;12.15;;;23.00;55.10;;;;;;4968553;28;115629;-79
2023/06/09 09:00:49;;;;;;;13.00;11.70;;;23.00;55.10;;;;;;4950547;28;116011;-79
2023/06/09 09:03:28;;;;;;;11.80;10.70;;;23.10;55.00;;;;;;4969610;28;115426;-75
2023/06/09 09:06:19;;;;;;;11.93;10.63;;;22.90;55.20;;;;;;4978682;28;115701;-78
2023/06/09 09:08:47;;;;;;;12.75;11.45;;;22.90;54.90;;;;;;4953728;28;117431;-77
2023/06/09 09:11:16;;;;;;;12.70;11.40;;;22.80;55.20;;;;;;4968024;28;114705;-77
2023/06/09 09:13:47;;;;;;;11.73;10.52;;;22.70;55.60;;;;;;4982914;28;115154;-77
2023/06/09 09:16:16;;;;;;;12.05;10.82;;;22.60;55.20;;;;;;4966059;28;115468;-77
2023/06/09 09:18:46;;;;;;;12.07;10.88;;;22.60;55.80;;;;;;4970904;28;114547;-78
2023/06/09 09:22:08;;;;;;;10.23;9.20;;;22.60;55.20;;;;;;4984472;28;114402;-78
2023/06/09 09:25:26;;;;;;;9.35;8.45;;;22.50;54.70;;;;;;4983505;28;115717;-78
2023/06/09 09:28:11;;;;;;;11.13;9.70;;;22.30;55.40;;;;;;4985301;28;114840;-78
2023/06/09 09:30:43;;;;;;;12.70;11.40;;;22.30;55.70;;;;;;4983941;28;114350;-77
2023/06/09 09:33:24;;;;;;;11.50;10.30;;;22.30;56.20;;;;;;4984359;28;114604;-78
2023/06/09 09:36:00;;;;;;;12.80;10.77;;;22.30;56.20;;;;;;4983646;28;115587;-78
2023/06/09 09:38:28;;;;;;;14.80;10.65;;;22.10;56.50;;;;;;4981099;28;114771;-78
2023/06/09 09:40:59;;;;;;;11.73;10.52;;;22.00;56.30;;;;;;4984281;28;114584;-77
2023/06/09 09:43:29;;;;;;;14.48;11.57;;;22.10;56.30;;;;;;4966925;28;114458;-78
2023/06/09 09:46:07;;;;;;;13.30;11.30;;;22.10;56.60;;;;;;4984689;28;115246;-78
2023/06/09 09:48:39;;;;;;;13.15;11.27;;;22.20;56.30;;;;;;4983254;28;115228;-77
2023/06/09 09:51:11;;;;;;;23.88;12.38;;;22.20;56.70;;;;;;4983990;28;114624;-76
2023/06/09 09:53:38;;;;;;;14.13;11.32;;;22.20;57.30;;;;;;4984756;28;114284;-78
2023/06/09 09:56:06;;;;;;;15.10;11.23;;;22.20;57.50;;;;;;4983290;28;115520;-77
2023/06/09 09:58:37;;;;;;;14.82;13.23;;;22.20;57.90;;;;;;4949262;28;115446;-78
2023/06/09 10:01:07;;;;;;;14.23;12.73;;;22.20;58.80;;;;;;4981593;28;114395;-77
2023/06/09 10:03:43;;;;;;;14.35;12.00;;;22.20;59.90;;;;;;4968568;28;114611;-77
2023/06/09 10:06:14;;;;;;;13.63;11.80;;;22.00;60.50;;;;;;4982925;28;115582;-79
2023/06/09 10:08:42;;;;;;;13.93;11.50;;;21.90;60.70;;;;;;4983139;28;114813;-78
2023/06/09 10:11:10;;;;;;;14.40;12.90;;;21.80;61.00;;;;;;4965246;28;114518;-78
2023/06/09 10:13:37;;;;;;;12.57;9.75;;;21.60;61.30;;;;;;4983471;28;114985;-77
2023/06/09 10:16:05;;;;;;;12.13;8.32;;;21.50;59.20;;;;;;4984183;28;115038;-77
2023/06/09 10:18:32;;;;;;;7.03;4.90;;;21.20;58.70;;;;;;4966836;28;115105;-78
2023/06/09 10:21:00;;;;;;;5.28;3.55;;;20.80;57.70;;;;;;4983485;28;114500;-78
2023/06/09 10:23:27;;;;;;;9.27;3.65;;;20.30;55.90;;;;;;4966276;28;115474;-78
2023/06/09 11:26:34;;;;;;;4.50;2.60;;;20.40;60.60;;;;;;4981197;28;114687;-77
2023/06/09 11:29:03;;;;;;;4.20;2.40;;;20.50;60.00;;;;;;4983487;28;116279;-78
2023/06/09 11:31:47;;;;;;;4.15;2.20;;;20.70;59.40;;;;;;4979837;28;117127;-79
2023/06/09 11:34:34;;;;;;;;;;;21.00;58.90;;;;;;4981828;28;114779;-77
2023/06/09 11:37:03;;;;;;;3.63;2.47;;;21.00;59.00;;;;;;4983774;28;119563;-77
2023/06/09 11:39:34;;;;;;;4.35;1.75;;;21.20;59.00;;;;;;4967133;28;114938;-78
2023/06/09 11:42:02;;;;;;;5.05;2.38;;;21.50;58.70;;;;;;4967535;28;114654;-78
2023/06/09 11:44:36;;;;;;;6.18;3.42;;;21.70;58.50;;;;;;4967729;28;114857;-78
2023/06/09 11:47:22;;;;;;;;;;;21.90;56.90;;;;;;4986067;28;114389;-78
2023/06/09 11:50:05;;;;;;;3.22;2.05;;;21.90;57.50;;;;;;4981461;28;115570;-77
2023/06/09 11:52:35;;;;;;;4.68;1.92;;;22.00;57.70;;;;;;4982103;28;115139;-79
2023/06/09 11:55:22;;;;;;;3.13;2.30;;;22.10;57.60;;;;;;5025537;27;114875;-78
2023/06/09 11:57:50;;;;;;;4.85;2.13;;;22.20;56.30;;;;;;5022781;27;114215;-78
2023/06/09 12:00:18;;;;;;;4.10;2.47;;;22.30;56.10;;;;;;5021715;27;117309;-76
2023/06/09 12:02:50;;;;;;;4.22;2.58;;;22.50;56.80;;;;;;5004928;27;114754;-77
2023/06/09 12:05:17;;;;;;;4.82;2.75;;;22.70;56.30;;;;;;5006157;27;114487;-77
2023/06/09 12:07:46;;;;;;;4.65;3.67;;;22.80;55.90;;;;;;5022795;27;114601;-77
2023/06/09 12:10:14;;;;;;;5.28;3.55;;;22.80;55.70;;;;;;5022817;27;114594;-77
2023/06/09 12:12:48;;;;;;;5.75;4.68;;;22.80;55.60;;;;;;5020975;27;114715;-77
2023/06/09 12:15:16;;;;;;;6.30;4.55;;;22.90;54.70;;;;;;5022441;27;114229;-77
2023/06/09 12:17:45;;;;;;;6.43;4.68;;;23.00;55.40;;;;;;5021635;27;114639;-77
2023/06/09 12:20:28;;;;;;;6.03;4.90;;;23.10;55.40;;;;;;5021570;27;115499;-77
2023/06/09 12:23:04;;;;;;;8.07;5.90;;;23.30;55.40;;;;;;5021418;27;116339;-78
2023/06/09 12:25:34;;;;;;;7.70;5.50;;;23.50;54.50;;;;;;5023474;27;114592;-78
2023/06/09 12:28:22;;;;;;;8.05;5.90;;;23.50;54.90;;;;;;5022000;27;114690;-76
2023/06/09 12:30:53;;;;;;;8.07;6.50;;;23.50;54.20;;;;;;5003690;28;116972;-78
2023/06/09 12:33:22;;;;;;;7.55;6.28;;;23.40;54.70;;;;;;5021779;27;114723;-78
2023/06/09 12:35:53;;;;;;;7.25;5.53;;;23.50;55.10;;;;;;4988783;27;114285;-76
2023/06/09 12:38:24;;;;;;;6.13;5.28;;;23.60;55.00;;;;;;5005407;27;114476;-78
2023/06/09 12:40:58;;;;;;;7.22;5.63;;;23.60;54.90;;;;;;5027286;27;115073;-76
2023/06/09 12:43:26;;;;;;;6.72;5.97;;;23.70;55.00;;;;;;5023365;27;116033;-76
2023/06/09 12:45:55;;;;;;;6.95;5.72;;;23.60;53.70;;;;;;5032075;27;114767;-78
2023/06/09 12:48:23;;;;;;;7.43;6.50;;;23.40;53.60;;;;;;5021757;27;116494;-77
2023/06/09 12:50:51;;;;;;;6.43;5.82;;;23.30;54.90;;;;;;5021867;27;114913;-77
2023/06/09 12:53:23;;;;;;;9.50;6.97;;;23.30;54.40;;;;;;5020000;27;114625;-78
2023/06/09 12:56:10;;;;;;;8.40;7.50;;;23.10;54.90;;;;;;5000455;27;114439;-77
2023/06/09 12:58:37;;;;;;;10.20;9.07;;;23.10;55.40;;;;;;5045014;27;114425;-78
2023/06/09 13:01:04;;;;;;;9.32;8.35;;;23.00;56.20;;;;;;5023553;27;115097;-78
2023/06/09 13:03:36;;;;;;;8.85;7.38;;;23.10;55.80;;;;;;5019190;27;119509;-77
2023/06/09 13:06:10;;;;;;;10.25;8.90;;;23.20;55.20;;;;;;5009864;27;114621;-80
2023/06/09 13:08:39;;;;;;;10.07;9.02;;;23.30;54.90;;;;;;5008265;28;114374;-76
2023/06/09 13:11:07;;;;;;;11.40;9.70;;;23.40;55.10;;;;;;5007934;28;115011;-78
2023/06/09 13:13:51;;;;;;;10.77;9.68;;;23.60;54.90;;;;;;4996398;28;115347;-78
2023/06/09 13:16:22;;;;;;;9.07;8.10;;;23.70;54.40;;;;;;5011449;28;114260;-77
2023/06/09 13:18:50;;;;;;;10.18;9.18;;;23.80;53.10;;;;;;4991867;28;114267;-78
2023/06/09 13:21:17;;;;;;;8.73;7.68;;;23.70;52.90;;;;;;5003961;28;114895;-77
2023/06/09 13:24:05;;;;;;;9.35;8.45;;;23.60;52.70;;;;;;5005985;28;115352;-77
2023/06/09 13:26:32;;;;;;;8.02;7.07;;;23.60;52.80;;;;;;5007664;28;114522;-76
2023/06/09 13:29:09;;;;;;;7.32;5.78;;;23.60;52.10;;;;;;5008719;28;114360;-77
2023/06/09 13:31:37;;;;;;;6.60;6.00;;;23.50;51.20;;;;;;5005764;28;114856;-77
2023/06/09 13:34:09;;;;;;;6.32;5.68;;;23.40;50.90;;;;;;5005318;28;116436;-77
2023/06/09 13:36:39;;;;;;;6.78;5.10;;;23.40;51.10;;;;;;5007473;28;114655;-77
2023/06/09 13:39:06;;;;;;;6.30;4.93;;;23.30;51.50;;;;;;5007581;28;114579;-77
2023/06/09 13:41:37;;;;;;;5.28;4.60;;;23.30;51.40;;;;;;5006936;28;114988;-77
2023/06/09 13:44:09;;;;;;;5.03;3.97;;;23.20;52.00;;;;;;4988658;28;114692;-78
2023/06/09 13:46:40;;;;;;;6.70;4.22;;;23.00;51.20;;;;;;5008419;28;114528;-78